« Back
NWS Peachtree City, Ga » Text Product » AHN Terminal Aerodrome Forecast


Printer-friendly Version
Current Version              Previous Versions:   1  2  3  4  5  6  7  8  9  

Terminal Aerodrome Forecast

286
FTAK31 PAJN 240522
TAFAHN
TAF
PAHN 240522Z 2406/2506 09005KT P6SM VCSH SCT015 OVC070
     FM242000 11010KT P6SM SCT025 OVC050
      AMD LTD TO CLD VIS AND WIND=

USA.gov is the U.S. government's official web portal to all federal, state and local government web resources and services.